createdAt,value
2023-02-19T00:27:11.462Z,10.75
2023-02-19T00:56:04.398Z,10.73
2023-02-19T01:24:54.429Z,10.6
2023-02-19T01:53:41.265Z,10.45
2023-02-19T02:22:35.948Z,10.27
2023-02-19T02:51:12.190Z,10.05
2023-02-19T03:19:46.018Z,9.81
2023-02-19T03:48:23.542Z,9.74
2023-02-19T04:17:13.477Z,9.69
2023-02-19T04:46:14.639Z,9.61
2023-02-19T05:14:58.101Z,9.4
2023-02-19T05:43:56.062Z,9.34
2023-02-19T06:12:50.064Z,9.21
2023-02-19T06:41:42.590Z,9.11
2023-02-19T07:10:36.081Z,9.03
2023-02-19T07:39:11.971Z,9.12
2023-02-19T08:07:56.855Z,9.27
2023-02-19T08:36:39.694Z,9.46
2023-02-19T09:05:18.973Z,9.48
2023-02-19T09:34:01.055Z,9.69
2023-02-19T10:02:42.872Z,10.1
2023-02-19T10:31:29.010Z,10.14
2023-02-19T10:59:40.218Z,10.28
2023-02-19T11:28:32.258Z,10.19
2023-02-19T11:57:30.744Z,10
2023-02-19T12:26:21.712Z,10.56
2023-02-19T13:25:05.932Z,11.17
2023-02-19T13:53:33.362Z,10.71
2023-02-19T14:22:41.239Z,10.95
2023-02-19T14:58:29.924Z,10.97
2023-02-19T15:57:00.964Z,10.65
2023-02-19T16:25:30.076Z,10.4
2023-02-19T16:54:06.494Z,10.17
2023-02-19T17:22:45.441Z,9.99
2023-02-19T18:59:48.344Z,9.73
2023-02-19T21:37:30.296Z,9.16
2023-02-19T22:05:58.464Z,9.13
2023-02-19T22:34:49.623Z,9.02
2023-02-19T23:03:17.241Z,8.91
2023-02-19T23:31:49.604Z,8.89
